Time;durP1;ratioP1;P1;durP2;ratioP2;P2;SDS_P1;SDS_P2;PMS_P1;PMS_P2;Temp;Humidity;BMP_temperature;BMP_pressure;BME280_temperature;BME280_humidity;BME280_pressure;Samples;Min_cycle;Max_cycle;Signal;HPM_P1;HPM_P2
2023/01/07 00:01:29;;;;;;;578.28;546.75;;;7.00;99.90;;;;;;5024627;28;20391;-60
2023/01/07 00:03:55;;;;;;;576.67;545.22;;;7.00;99.90;;;;;;5025810;28;20382;-58
2023/01/07 00:06:27;;;;;;;595.25;562.78;;;6.90;99.90;;;;;;5024839;28;20402;-59
2023/01/07 00:08:54;;;;;;;606.80;573.03;;;6.90;99.90;;;;;;5026026;28;20929;-60
2023/01/07 00:11:26;;;;;;;607.10;572.92;;;6.90;99.90;;;;;;5024874;28;20394;-60
2023/01/07 00:13:53;;;;;;;599.88;566.38;;;6.90;99.90;;;;;;5024219;28;20441;-60
2023/01/07 00:16:21;;;;;;;609.17;575.28;;;7.00;99.90;;;;;;5025560;28;20397;-60
2023/01/07 00:18:48;;;;;;;603.25;569.60;;;7.10;99.90;;;;;;5025252;28;20882;-61
2023/01/07 00:21:16;;;;;;;614.38;580.17;;;7.10;99.90;;;;;;5023894;28;20411;-61
2023/01/07 00:23:43;;;;;;;601.33;568.08;;;7.10;99.90;;;;;;5024157;28;20403;-61
2023/01/07 00:26:15;;;;;;;604.90;570.93;;;7.10;99.90;;;;;;5023818;28;20426;-59
2023/01/07 00:28:42;;;;;;;603.88;570.22;;;7.10;99.90;;;;;;5026966;28;20799;-60
2023/01/07 00:31:20;;;;;;;597.30;564.20;;;7.00;99.90;;;;;;5027210;28;20870;-61
2023/01/07 00:34:07;;;;;;;566.83;536.17;;;7.00;99.90;;;;;;5024625;28;20464;-61
2023/01/07 00:36:35;;;;;;;567.30;536.38;;;6.90;99.90;;;;;;5025573;28;20422;-61
2023/01/07 00:39:07;;;;;;;563.33;532.85;;;6.90;99.90;;;;;;5025476;28;20445;-61
2023/01/07 00:41:33;;;;;;;565.05;534.72;;;6.90;99.90;;;;;;5026658;28;20407;-61
2023/01/07 00:43:59;;;;;;;560.92;531.03;;;7.00;99.90;;;;;;5026397;28;20391;-59
2023/01/07 00:46:24;;;;;;;554.95;525.10;;;7.00;99.90;;;;;;5028437;28;20398;-60
2023/01/07 00:48:50;;;;;;;566.70;535.88;;;7.10;99.90;;;;;;5028206;28;20465;-61
2023/01/07 00:51:16;;;;;;;575.67;544.23;;;7.20;99.90;;;;;;5028661;28;20395;-61
2023/01/07 00:53:42;;;;;;;575.85;544.15;;;7.20;99.90;;;;;;5025871;28;20481;-59
2023/01/07 00:56:09;;;;;;;597.20;564.15;;;7.20;99.90;;;;;;5028749;28;20545;-61
2023/01/07 00:58:35;;;;;;;599.10;565.45;;;7.20;99.90;;;;;;5027294;28;20391;-61
2023/01/07 01:01:02;;;;;;;619.97;584.40;;;7.30;99.90;;;;;;5026371;28;20398;-61
2023/01/07 01:03:29;;;;;;;622.78;587.20;;;7.20;99.90;;;;;;5026352;28;20434;-61
2023/01/07 01:06:26;;;;;;;619.35;584.22;;;7.20;99.90;;;;;;5024656;28;20414;-59
2023/01/07 01:08:51;;;;;;;617.72;582.47;;;7.20;99.90;;;;;;5023405;28;20387;-60
2023/01/07 01:11:17;;;;;;;621.03;585.53;;;7.20;99.90;;;;;;5024833;28;20391;-59
2023/01/07 01:13:44;;;;;;;625.15;589.33;;;7.20;99.90;;;;;;5023468;28;20390;-60
2023/01/07 01:16:12;;;;;;;632.00;595.22;;;7.30;99.90;;;;;;5022469;28;20383;-59
2023/01/07 01:18:38;;;;;;;627.25;590.83;;;7.30;99.90;;;;;;5023859;28;20790;-60
2023/01/07 01:21:06;;;;;;;613.80;578.55;;;7.20;99.90;;;;;;5022597;28;20407;-59
2023/01/07 01:23:32;;;;;;;614.67;579.50;;;7.20;99.90;;;;;;5025075;28;20664;-60
2023/01/07 01:26:06;;;;;;;606.77;572.33;;;7.20;99.90;;;;;;5025666;28;20803;-60
2023/01/07 01:28:32;;;;;;;622.00;586.10;;;7.20;99.90;;;;;;5026674;28;20398;-60
2023/01/07 01:30:58;;;;;;;617.25;582.50;;;7.20;99.90;;;;;;5026138;28;20712;-60
2023/01/07 01:33:23;;;;;;;597.38;564.15;;;7.20;99.90;;;;;;5026754;28;20799;-59
2023/01/07 01:35:49;;;;;;;593.63;560.78;;;7.20;99.90;;;;;;5027277;28;20411;-58
2023/01/07 01:38:15;;;;;;;595.87;562.30;;;7.20;99.90;;;;;;5027979;28;20651;-59
2023/01/07 01:40:40;;;;;;;604.67;570.87;;;7.20;99.90;;;;;;5027741;28;20422;-58
2023/01/07 01:43:28;;;;;;;596.83;563.67;;;7.20;99.90;;;;;;5028378;28;20402;-60
2023/01/07 01:45:53;;;;;;;595.50;562.03;;;7.30;99.90;;;;;;5028694;28;20378;-60
2023/01/07 01:48:20;;;;;;;592.33;559.05;;;7.30;99.90;;;;;;5029193;28;20446;-60
2023/01/07 01:50:48;;;;;;;627.33;590.67;;;7.30;99.90;;;;;;5029440;28;20676;-60
2023/01/07 01:53:18;;;;;;;612.00;577.70;;;7.20;99.90;;;;;;5030030;28;20391;-60
2023/01/07 01:55:52;;;;;;;618.73;583.40;;;7.20;99.90;;;;;;5030045;28;20391;-60
2023/01/07 01:58:23;;;;;;;599.70;565.83;;;7.10;99.90;;;;;;5032987;28;20390;-59
2023/01/07 02:00:49;;;;;;;576.78;544.90;;;7.10;99.90;;;;;;5033945;28;20477;-59
2023/01/07 02:03:17;;;;;;;586.53;554.40;;;7.20;99.90;;;;;;5032704;28;20465;-59
2023/01/07 02:05:44;;;;;;;599.85;566.38;;;7.20;99.90;;;;;;5034047;28;20410;-60
2023/01/07 02:08:10;;;;;;;578.38;546.70;;;7.20;99.90;;;;;;5034666;28;20437;-59
2023/01/07 02:10:37;;;;;;;596.37;563.27;;;7.20;99.90;;;;;;5035613;28;20766;-60
2023/01/07 02:13:47;;;;;;;578.53;547.03;;;7.30;99.90;;;;;;5033958;28;20481;-58
2023/01/07 02:16:15;;;;;;;587.72;555.22;;;7.30;99.90;;;;;;5034985;28;20475;-58
2023/01/07 02:19:12;;;;;;;580.13;548.13;;;7.30;99.90;;;;;;5032924;28;20480;-60
2023/01/07 02:21:45;;;;;;;573.22;541.88;;;7.20;99.90;;;;;;5032685;28;20391;-60
2023/01/07 02:24:25;;;;;;;584.42;552.45;;;7.20;99.90;;;;;;5033486;28;20766;-60
2023/01/07 02:27:20;;;;;;;587.00;555.00;;;7.30;99.90;;;;;;5034243;28;20378;-62
2023/01/07 02:30:18;;;;;;;580.70;548.75;;;7.30;99.90;;;;;;5034007;28;20391;-58
2023/01/07 02:32:59;;;;;;;604.70;571.20;;;7.30;99.90;;;;;;5033845;28;20383;-57
2023/01/07 02:35:40;;;;;;;596.17;563.08;;;7.30;99.90;;;;;;5033141;28;20775;-59
2023/01/07 02:38:44;;;;;;;617.55;583.05;;;7.30;99.90;;;;;;5034281;28;20379;-60
2023/01/07 02:41:43;;;;;;;602.55;569.08;;;7.40;99.90;;;;;;5030158;28;20431;-61
2023/01/07 02:44:24;;;;;;;583.03;550.55;;;7.50;99.90;;;;;;5031589;28;20383;-60
2023/01/07 02:46:57;;;;;;;602.97;569.40;;;7.50;99.90;;;;;;5033836;28;20474;-58
2023/01/07 02:49:23;;;;;;;606.17;571.90;;;7.50;99.90;;;;;;5032914;28;20383;-60
2023/01/07 02:51:49;;;;;;;599.90;566.60;;;7.50;99.90;;;;;;5032074;28;20633;-59
2023/01/07 02:54:21;;;;;;;604.03;570.37;;;7.50;99.90;;;;;;5032313;28;20374;-59
2023/01/07 02:57:15;;;;;;;597.87;564.77;;;7.50;99.90;;;;;;5031683;28;20390;-60
2023/01/07 02:59:41;;;;;;;599.20;566.13;;;7.60;99.90;;;;;;5032286;28;20819;-60
2023/01/07 03:02:28;;;;;;;595.03;562.03;;;7.60;99.90;;;;;;5030689;28;20403;-60
2023/01/07 03:05:14;;;;;;;607.10;573.05;;;7.60;99.90;;;;;;5030567;28;20684;-60
2023/01/07 03:08:01;;;;;;;609.65;575.42;;;7.60;99.90;;;;;;5029202;28;20468;-59
2023/01/07 03:10:38;;;;;;;618.83;584.03;;;7.60;99.90;;;;;;5031148;28;20384;-60
2023/01/07 03:13:07;;;;;;;614.33;579.80;;;7.60;99.90;;;;;;5031814;28;20449;-58
2023/01/07 03:15:47;;;;;;;607.03;573.17;;;7.60;99.90;;;;;;5031379;28;20478;-60
2023/01/07 03:18:22;;;;;;;595.22;562.25;;;7.60;99.90;;;;;;5030922;28;20767;-60
2023/01/07 03:20:53;;;;;;;604.90;571.25;;;7.60;99.90;;;;;;5031174;28;20493;-59
2023/01/07 03:23:22;;;;;;;620.55;585.03;;;7.60;99.90;;;;;;5031640;28;20605;-59
2023/01/07 03:25:51;;;;;;;635.08;598.67;;;7.60;99.90;;;;;;5033031;28;20389;-58
2023/01/07 03:28:20;;;;;;;642.58;605.38;;;7.50;99.90;;;;;;5031581;28;20391;-60
2023/01/07 03:30:48;;;;;;;650.53;613.13;;;7.60;99.90;;;;;;5032471;28;20695;-59
2023/01/07 03:33:40;;;;;;;635.17;598.90;;;7.60;99.90;;;;;;5032085;28;20405;-60
2023/01/07 03:36:09;;;;;;;643.63;606.70;;;7.60;99.90;;;;;;5006040;28;20915;-60
2023/01/07 03:38:36;;;;;;;645.05;608.13;;;7.60;99.90;;;;;;5031800;28;20490;-59
2023/01/07 03:41:02;;;;;;;651.15;613.55;;;7.70;99.90;;;;;;5031185;28;20413;-59
2023/01/07 03:43:28;;;;;;;642.75;606.00;;;7.70;99.90;;;;;;5029868;28;20418;-56
2023/01/07 03:45:56;;;;;;;655.77;618.10;;;7.80;99.90;;;;;;5029593;28;20425;-61
2023/01/07 03:48:22;;;;;;;646.73;609.60;;;7.80;99.90;;;;;;5030108;28;20406;-60
2023/01/07 03:50:47;;;;;;;648.63;611.63;;;7.80;99.90;;;;;;5031410;28;20435;-59
2023/01/07 03:53:13;;;;;;;634.40;598.38;;;7.90;99.90;;;;;;5029922;28;20390;-59
2023/01/07 03:55:38;;;;;;;650.00;612.80;;;7.90;99.90;;;;;;5030338;28;20460;-60
2023/01/07 03:58:04;;;;;;;632.83;596.87;;;7.90;99.90;;;;;;5033212;28;20391;-58
2023/01/07 04:00:30;;;;;;;644.10;607.33;;;7.90;99.90;;;;;;5032361;28;20399;-59
2023/01/07 04:02:55;;;;;;;650.67;613.10;;;7.90;99.90;;;;;;5032294;28;20498;-58
2023/01/07 04:05:21;;;;;;;647.67;610.50;;;7.90;99.90;;;;;;5034023;28;20867;-60
2023/01/07 04:07:46;;;;;;;647.22;610.10;;;8.00;99.90;;;;;;5034428;28;20423;-60
2023/01/07 04:10:12;;;;;;;651.27;613.70;;;8.00;99.90;;;;;;5034696;28;20426;-60
2023/01/07 04:12:37;;;;;;;647.30;610.03;;;8.00;99.90;;;;;;5035464;28;20418;-59
2023/01/07 04:15:04;;;;;;;647.92;611.15;;;8.00;99.90;;;;;;5033472;28;20429;-59
2023/01/07 04:17:29;;;;;;;646.88;609.78;;;8.00;99.90;;;;;;5033543;28;20394;-60
2023/01/07 04:19:55;;;;;;;637.53;601.22;;;8.00;99.90;;;;;;5032617;28;20425;-61
2023/01/07 04:22:20;;;;;;;659.55;621.45;;;8.00;99.90;;;;;;5032357;28;20433;-57
2023/01/07 04:24:46;;;;;;;649.08;611.67;;;8.00;99.90;;;;;;5031342;28;20398;-58
2023/01/07 04:27:11;;;;;;;672.43;633.17;;;8.00;99.90;;;;;;5031326;28;20523;-59
2023/01/07 04:29:37;;;;;;;676.67;637.17;;;8.10;99.90;;;;;;5031142;28;20567;-59
2023/01/07 04:32:03;;;;;;;678.00;638.42;;;8.10;99.90;;;;;;5030491;28;20391;-59
2023/01/07 04:34:28;;;;;;;691.60;651.03;;;8.10;99.90;;;;;;5031053;28;20713;-60
2023/01/07 04:36:54;;;;;;;704.00;662.17;;;8.10;99.90;;;;;;5031888;28;20423;-60
2023/01/07 04:39:19;;;;;;;697.05;655.80;;;8.10;99.90;;;;;;5031260;28;20461;-60
2023/01/07 04:41:45;;;;;;;703.85;662.05;;;8.10;99.90;;;;;;5030555;28;20426;-60
2023/01/07 04:44:11;;;;;;;720.17;676.63;;;8.10;99.90;;;;;;5029367;28;20391;-59
2023/01/07 04:46:36;;;;;;;734.27;689.10;;;8.10;99.90;;;;;;5030056;28;20394;-60
2023/01/07 04:49:02;;;;;;;769.63;721.00;;;8.10;99.90;;;;;;5030427;28;20458;-60
2023/01/07 04:51:27;;;;;;;789.42;738.78;;;8.10;99.90;;;;;;5029028;28;20403;-59
2023/01/07 04:53:54;;;;;;;789.63;738.72;;;8.20;99.90;;;;;;5029238;28;20725;-58
2023/01/07 04:56:20;;;;;;;831.92;777.55;;;8.20;99.90;;;;;;5027647;28;20442;-61
2023/01/07 04:58:45;;;;;;;838.57;783.47;;;8.10;99.90;;;;;;5029079;28;20419;-58
2023/01/07 05:01:11;;;;;;;847.50;791.50;;;8.20;99.90;;;;;;5030292;28;20391;-61
2023/01/07 05:03:37;;;;;;;837.45;782.47;;;8.20;99.90;;;;;;5028516;28;20466;-59
2023/01/07 05:06:02;;;;;;;850.47;794.22;;;8.30;99.90;;;;;;5029344;28;20706;-57
2023/01/07 05:08:29;;;;;;;845.15;789.55;;;8.30;99.90;;;;;;5028847;28;20399;-60
2023/01/07 05:10:54;;;;;;;853.35;796.45;;;8.30;99.90;;;;;;5030918;28;20415;-58
2023/01/07 05:13:21;;;;;;;871.13;812.83;;;8.30;99.90;;;;;;5030180;28;20526;-60
2023/01/07 05:15:47;;;;;;;879.47;820.08;;;8.30;99.90;;;;;;5028448;28;20383;-59
2023/01/07 05:18:15;;;;;;;877.50;817.73;;;8.30;99.90;;;;;;5029082;28;20383;-60
2023/01/07 05:20:40;;;;;;;873.72;814.65;;;8.40;99.90;;;;;;5028863;28;20422;-59
2023/01/07 05:23:06;;;;;;;874.83;815.80;;;8.40;99.90;;;;;;5027512;28;20445;-60
2023/01/07 05:25:32;;;;;;;866.05;808.05;;;8.40;99.90;;;;;;5026759;28;20418;-60
2023/01/07 05:27:58;;;;;;;883.33;823.90;;;8.40;99.90;;;;;;5025359;28;20713;-60
2023/01/07 05:30:24;;;;;;;874.40;815.90;;;8.50;99.90;;;;;;5028862;28;20394;-60
2023/01/07 05:32:50;;;;;;;887.40;827.67;;;8.50;99.90;;;;;;5031991;28;20399;-60
2023/01/07 05:35:16;;;;;;;872.10;813.95;;;8.50;99.90;;;;;;5033566;28;20837;-60
2023/01/07 05:37:41;;;;;;;879.38;820.75;;;8.60;99.90;;;;;;5033369;28;20427;-61
2023/01/07 05:40:07;;;;;;;892.67;831.97;;;8.60;99.90;;;;;;5034282;28;20681;-60
2023/01/07 05:42:33;;;;;;;893.30;833.00;;;8.60;99.90;;;;;;5035481;28;20421;-59
2023/01/07 05:44:58;;;;;;;889.60;830.50;;;8.60;99.90;;;;;;5034275;28;20494;-60
2023/01/07 05:47:24;;;;;;;921.25;857.78;;;8.60;99.90;;;;;;5034705;28;20729;-60
2023/01/07 05:49:50;;;;;;;941.33;876.80;;;8.60;99.90;;;;;;5032201;28;20395;-60
2023/01/07 05:52:15;;;;;;;933.63;869.40;;;8.70;99.90;;;;;;5031605;28;20390;-56
2023/01/07 05:54:41;;;;;;;962.17;895.03;;;8.70;99.90;;;;;;5030744;28;20378;-61
2023/01/07 05:57:06;;;;;;;963.45;895.40;;;8.70;99.90;;;;;;5031053;28;20395;-62
2023/01/07 05:59:35;;;;;;;954.47;887.93;;;8.70;99.90;;;;;;5029194;28;20449;-60
2023/01/07 06:02:01;;;;;;;959.38;892.80;;;8.80;99.90;;;;;;5025086;28;20734;-58
2023/01/07 06:04:27;;;;;;;943.38;877.28;;;8.80;99.90;;;;;;5024864;28;20426;-58
2023/01/07 06:06:52;;;;;;;991.73;922.37;;;8.80;99.90;;;;;;5025666;28;20462;-59
2023/01/07 06:09:18;;;;;;;976.03;907.25;;;8.80;99.90;;;;;;5025934;28;20415;-60
2023/01/07 06:11:43;;;;;;;991.50;920.03;;;8.80;99.90;;;;;;5025933;28;20632;-60
2023/01/07 06:14:09;;;;;;;1023.33;949.23;;;8.90;99.90;;;;;;5025860;28;20611;-59
2023/01/07 06:16:35;;;;;;;999.35;926.42;;;8.90;99.90;;;;;;5029285;28;20430;-60
2023/01/07 06:19:00;;;;;;;1017.87;943.53;;;8.90;99.90;;;;;;5032141;28;20419;-58
2023/01/07 06:21:26;;;;;;;1012.60;939.22;;;8.90;99.90;;;;;;5031250;28;20489;-57
2023/01/07 06:23:52;;;;;;;1003.63;931.10;;;9.00;99.90;;;;;;5029480;28;20442;-60
2023/01/07 06:26:17;;;;;;;1004.77;930.20;;;9.00;99.90;;;;;;5033303;28;20466;-55
2023/01/07 06:28:43;;;;;;;1030.47;955.07;;;9.00;99.90;;;;;;5035066;28;20386;-60
2023/01/07 06:31:09;;;;;;;1020.58;945.33;;;9.00;99.90;;;;;;5049224;28;20498;-60
2023/01/07 06:33:36;;;;;;;1058.88;978.83;;;9.00;99.90;;;;;;5052071;28;20872;-59
2023/01/07 06:36:03;;;;;;;1056.25;977.20;;;9.10;99.90;;;;;;5053407;28;20671;-64
2023/01/07 06:38:29;;;;;;;998.63;927.23;;;9.10;99.90;;;;;;5055125;28;20529;-55
2023/01/07 06:40:55;;;;;;;1000.33;927.87;;;9.10;99.90;;;;;;5052372;28;20791;-59
2023/01/07 06:43:20;;;;;;;1004.33;931.60;;;9.20;99.90;;;;;;5048730;28;20393;-60
2023/01/07 06:45:46;;;;;;;935.80;870.40;;;9.30;99.90;;;;;;5047973;28;20405;-60
2023/01/07 06:48:11;;;;;;;980.67;910.10;;;9.30;99.90;;;;;;5032404;28;20391;-60
2023/01/07 06:50:37;;;;;;;984.72;913.15;;;9.30;99.90;;;;;;5039416;28;20527;-57
2023/01/07 06:53:03;;;;;;;958.70;889.30;;;9.30;99.90;;;;;;5049154;28;20400;-58
2023/01/07 06:55:28;;;;;;;982.97;911.55;;;9.40;99.90;;;;;;5047710;28;20685;-57
2023/01/07 06:57:54;;;;;;;978.03;906.40;;;9.40;99.90;;;;;;5047360;28;20819;-57
2023/01/07 07:00:20;;;;;;;978.37;906.40;;;9.40;99.90;;;;;;5048440;28;20686;-59
2023/01/07 07:02:46;;;;;;;996.42;921.97;;;9.40;99.90;;;;;;5047611;28;20442;-59
2023/01/07 07:05:12;;;;;;;1003.87;930.30;;;9.40;99.90;;;;;;5047785;28;20402;-56
2023/01/07 07:07:37;;;;;;;1021.77;945.43;;;9.50;99.90;;;;;;5047182;28;20663;-60
2023/01/07 07:10:06;;;;;;;1023.08;946.20;;;9.50;99.90;;;;;;5049172;28;20745;-60
2023/01/07 07:12:34;;;;;;;1033.47;956.17;;;9.60;99.90;;;;;;5048237;28;20412;-60
2023/01/07 07:15:00;;;;;;;1040.37;961.27;;;9.60;99.90;;;;;;5048166;28;20542;-60
2023/01/07 07:17:26;;;;;;;1042.40;962.13;;;9.60;99.90;;;;;;5048017;28;20397;-60
2023/01/07 07:19:51;;;;;;;1044.43;965.08;;;9.60;99.90;;;;;;5045988;28;20401;-59
2023/01/07 07:22:17;;;;;;;1046.35;965.78;;;9.60;99.90;;;;;;5045377;28;20432;-59
2023/01/07 07:24:42;;;;;;;1040.97;961.83;;;9.60;99.90;;;;;;5046838;28;20393;-62
2023/01/07 07:27:08;;;;;;;1049.20;970.10;;;9.60;99.90;;;;;;5047087;28;20381;-58
2023/01/07 07:29:33;;;;;;;1018.88;941.72;;;9.60;99.90;;;;;;5047443;28;20656;-60
2023/01/07 07:31:59;;;;;;;1018.25;940.00;;;9.60;99.90;;;;;;5046753;28;20449;-61
2023/01/07 07:34:24;;;;;;;1047.07;967.70;;;9.60;99.90;;;;;;5048014;28;20665;-60
2023/01/07 07:36:50;;;;;;;1032.73;953.57;;;9.60;99.90;;;;;;5048970;28;20412;-58
2023/01/07 07:39:16;;;;;;;1046.65;967.17;;;9.60;99.90;;;;;;5048705;28;20808;-59
2023/01/07 07:41:41;;;;;;;1018.08;941.65;;;9.60;99.90;;;;;;5049389;28;20487;-55
2023/01/07 07:44:07;;;;;;;1015.07;938.97;;;9.60;99.90;;;;;;5049165;28;20436;-57
2023/01/07 07:46:33;;;;;;;1008.20;933.70;;;9.60;99.90;;;;;;5049723;28;20408;-60
2023/01/07 07:48:58;;;;;;;1004.60;929.63;;;9.60;99.90;;;;;;5049934;28;20393;-59
2023/01/07 07:51:24;;;;;;;1005.40;931.83;;;9.70;99.90;;;;;;5049227;28;20401;-59
2023/01/07 07:53:49;;;;;;;1006.25;931.72;;;9.70;99.90;;;;;;5049575;28;20400;-58
2023/01/07 07:56:15;;;;;;;1000.03;926.40;;;9.70;99.90;;;;;;5050646;28;20377;-62
2023/01/07 07:58:44;;;;;;;976.00;904.40;;;9.70;99.90;;;;;;5082656;28;20492;-60
2023/01/07 08:01:10;;;;;;;988.42;915.50;;;9.70;99.90;;;;;;5048991;28;20389;-60
2023/01/07 08:03:36;;;;;;;1001.70;928.63;;;9.70;99.90;;;;;;5047337;28;20421;-59
2023/01/07 08:06:05;;;;;;;1017.40;941.78;;;9.70;99.90;;;;;;5047201;28;20412;-59
2023/01/07 08:08:31;;;;;;;1011.67;936.60;;;9.70;99.90;;;;;;5045949;28;20720;-59
2023/01/07 08:10:56;;;;;;;1016.10;941.43;;;9.70;99.90;;;;;;5044707;28;20378;-59
2023/01/07 08:13:22;;;;;;;995.43;921.30;;;9.70;99.90;;;;;;5045579;28;20382;-59
2023/01/07 08:15:48;;;;;;;985.45;912.90;;;9.70;99.90;;;;;;5045673;28;20450;-57
2023/01/07 08:18:13;;;;;;;979.97;908.42;;;9.70;99.90;;;;;;5045070;28;20393;-57
2023/01/07 08:20:39;;;;;;;983.60;912.03;;;9.80;99.90;;;;;;5043631;28;20413;-60
2023/01/07 08:23:07;;;;;;;998.53;926.43;;;9.80;99.90;;;;;;5043219;28;20735;-60
2023/01/07 08:25:34;;;;;;;995.00;923.55;;;9.80;99.90;;;;;;5041464;28;20369;-61
2023/01/07 08:28:00;;;;;;;983.88;914.13;;;9.90;99.90;;;;;;5039064;28;20459;-59
2023/01/07 08:30:29;;;;;;;1009.53;935.50;;;9.90;99.90;;;;;;5039528;28;20420;-60
2023/01/07 08:32:54;;;;;;;1029.38;953.25;;;9.90;99.90;;;;;;5040181;28;20473;-59
2023/01/07 08:35:20;;;;;;;1031.78;955.30;;;9.90;99.90;;;;;;5039577;28;20409;-60
2023/01/07 08:37:46;;;;;;;1054.15;974.53;;;9.90;99.90;;;;;;5039476;28;20931;-60
2023/01/07 08:40:12;;;;;;;1063.20;982.07;;;9.90;99.90;;;;;;5039716;28;20485;-60
2023/01/07 08:42:39;;;;;;;1060.07;980.65;;;9.90;99.90;;;;;;5038273;28;20472;-60
2023/01/07 08:45:07;;;;;;;1055.13;974.95;;;9.90;99.90;;;;;;5038172;28;20521;-59
2023/01/07 08:47:33;;;;;;;1078.20;998.00;;;10.00;99.90;;;;;;5039820;28;20694;-60
2023/01/07 08:49:59;;;;;;;1072.20;990.50;;;10.00;99.90;;;;;;5041147;28;20405;-60
2023/01/07 08:52:25;;;;;;;1062.40;982.60;;;10.00;99.90;;;;;;5042079;28;20386;-59
2023/01/07 08:54:51;;;;;;;1068.97;988.23;;;10.00;99.90;;;;;;5041426;28;20623;-60
2023/01/07 08:57:17;;;;;;;1070.83;989.40;;;10.00;99.90;;;;;;5040697;28;20785;-59
2023/01/07 08:59:43;;;;;;;1038.25;959.45;;;9.90;99.90;;;;;;5038632;28;20386;-59
2023/01/07 09:02:15;;;;;;;1050.20;972.65;;;9.90;99.90;;;;;;5041581;28;20408;-60
2023/01/07 09:04:41;;;;;;;1055.53;976.63;;;9.90;99.90;;;;;;5038870;28;20499;-60
2023/01/07 09:07:07;;;;;;;1056.97;978.47;;;9.90;99.90;;;;;;5038068;28;20602;-60
2023/01/07 09:09:34;;;;;;;1048.32;969.70;;;9.90;99.90;;;;;;5039094;28;20580;-61
2023/01/07 09:11:59;;;;;;;1051.97;973.73;;;10.00;99.90;;;;;;5037529;28;20640;-60
2023/01/07 09:14:25;;;;;;;1033.87;957.17;;;10.00;99.90;;;;;;5039283;28;20472;-56
2023/01/07 09:16:51;;;;;;;1047.55;969.35;;;10.10;99.90;;;;;;5037626;28;20510;-60
2023/01/07 09:19:16;;;;;;;1068.05;988.15;;;10.00;99.90;;;;;;5036153;28;20685;-60
2023/01/07 09:21:42;;;;;;;1062.50;983.47;;;10.00;99.90;;;;;;5037187;28;20400;-60
2023/01/07 09:24:08;;;;;;;1051.47;973.83;;;10.00;99.90;;;;;;5038615;28;20684;-59
2023/01/07 09:26:33;;;;;;;1054.67;975.60;;;10.00;99.90;;;;;;5038694;28;20393;-58
2023/01/07 09:28:59;;;;;;;1040.63;963.87;;;10.00;99.90;;;;;;5039528;28;20891;-58
2023/01/07 09:31:25;;;;;;;1037.53;960.65;;;10.00;99.90;;;;;;5038359;28;20391;-59
2023/01/07 09:33:51;;;;;;;1038.43;960.75;;;10.00;99.90;;;;;;5039872;28;20844;-60
2023/01/07 09:36:16;;;;;;;1046.40;969.05;;;10.00;99.90;;;;;;5036254;28;20439;-62
2023/01/07 09:38:42;;;;;;;1044.57;965.55;;;10.00;99.90;;;;;;5035187;28;21006;-60
2023/01/07 09:41:25;;;;;;;1041.15;962.88;;;10.00;99.90;;;;;;5037497;28;20607;-60
2023/01/07 09:43:55;;;;;;;1038.43;959.97;;;10.10;99.90;;;;;;5038556;28;20405;-60
2023/01/07 09:46:22;;;;;;;1049.45;971.22;;;10.10;99.90;;;;;;5038650;28;20388;-60
2023/01/07 09:48:56;;;;;;;1019.83;943.83;;;10.10;99.90;;;;;;5039046;28;20685;-60
2023/01/07 09:51:30;;;;;;;1027.47;950.77;;;10.10;99.90;;;;;;5041543;28;21037;-60
2023/01/07 09:54:00;;;;;;;1020.83;947.60;;;10.10;99.90;;;;;;5042983;28;20381;-56
2023/01/07 09:56:34;;;;;;;1067.63;987.20;;;10.10;99.90;;;;;;5043382;28;20404;-60
2023/01/07 09:59:02;;;;;;;1042.88;963.95;;;10.20;99.90;;;;;;5040630;28;20577;-60
2023/01/07 10:02:02;;;;;;;1069.65;989.95;;;10.20;99.90;;;;;;5041816;28;20830;-57
2023/01/07 10:04:31;;;;;;;1120.20;999.90;;;10.30;99.90;;;;;;5034275;28;20424;-59
2023/01/07 10:07:31;;;;;;;1135.53;999.90;;;10.30;99.90;;;;;;5042863;28;20403;-60
2023/01/07 10:10:22;;;;;;;1125.47;999.90;;;10.30;99.90;;;;;;5041122;28;20420;-58
2023/01/07 10:12:51;;;;;;;1124.70;999.90;;;10.30;99.90;;;;;;5034084;28;20627;-55
2023/01/07 10:15:39;;;;;;;1137.40;999.90;;;10.30;99.90;;;;;;5042284;28;20812;-60
2023/01/07 10:18:22;;;;;;;1139.13;999.90;;;10.30;99.90;;;;;;5041706;28;20762;-60
2023/01/07 10:21:12;;;;;;;1172.97;999.90;;;10.40;99.90;;;;;;5045397;28;20393;-58
2023/01/07 10:23:42;;;;;;;1176.95;999.90;;;10.40;99.90;;;;;;5048426;28;20409;-57
2023/01/07 10:26:38;;;;;;;1142.60;999.90;;;10.40;99.90;;;;;;5049553;28;20443;-60
2023/01/07 10:29:24;;;;;;;1094.60;999.90;;;10.50;99.90;;;;;;5047816;28;20384;-57
2023/01/07 10:31:52;;;;;;;1080.00;996.80;;;10.50;99.90;;;;;;5035059;28;20444;-59
2023/01/07 10:34:28;;;;;;;1091.93;999.90;;;10.50;99.90;;;;;;5050458;28;20445;-60
2023/01/07 10:37:04;;;;;;;1025.82;951.53;;;10.50;99.90;;;;;;5050998;28;20400;-59
2023/01/07 10:39:30;;;;;;;967.00;898.20;;;10.50;99.90;;;;;;5051513;28;20428;-60
2023/01/07 10:42:19;;;;;;;949.45;883.10;;;10.50;99.90;;;;;;5050794;28;20439;-59
2023/01/07 10:44:57;;;;;;;957.87;891.03;;;10.50;99.90;;;;;;5053067;28;20471;-59
2023/01/07 10:47:45;;;;;;;961.63;894.70;;;10.50;99.90;;;;;;5050944;28;20385;-59
2023/01/07 10:50:30;;;;;;;916.38;853.45;;;10.60;99.90;;;;;;5048106;28;20408;-59
2023/01/07 10:53:17;;;;;;;901.20;839.58;;;10.60;99.90;;;;;;5049929;28;20685;-58
2023/01/07 10:55:46;;;;;;;842.38;787.53;;;10.60;99.90;;;;;;5050401;28;20472;-58
2023/01/07 10:58:13;;;;;;;789.83;738.17;;;10.70;99.90;;;;;;5048812;28;20401;-57
2023/01/07 11:00:40;;;;;;;778.30;728.10;;;10.70;99.90;;;;;;5048103;28;20393;-55
2023/01/07 11:03:22;;;;;;;710.72;667.83;;;10.80;99.90;;;;;;5047720;28;20428;-59
2023/01/07 11:05:56;;;;;;;727.13;683.17;;;10.80;99.90;;;;;;5047790;28;20393;-59
2023/01/07 11:08:31;;;;;;;728.92;684.58;;;10.80;99.90;;;;;;5049081;28;21004;-58
2023/01/07 11:10:57;;;;;;;723.20;679.88;;;10.80;99.90;;;;;;5049047;28;20377;-60
2023/01/07 11:13:31;;;;;;;725.45;681.17;;;10.70;99.90;;;;;;5050507;28;20489;-60
2023/01/07 11:16:08;;;;;;;705.47;662.70;;;10.80;99.90;;;;;;5050186;28;20393;-60
2023/01/07 11:18:55;;;;;;;696.97;654.78;;;10.80;99.90;;;;;;5048869;28;20389;-56
2023/01/07 11:21:51;;;;;;;693.85;652.22;;;10.80;99.90;;;;;;5047111;28;20401;-60
2023/01/07 11:24:25;;;;;;;701.93;659.53;;;10.80;99.90;;;;;;5029399;28;20417;-57
2023/01/07 11:26:58;;;;;;;703.60;661.00;;;10.80;99.90;;;;;;5047039;28;20419;-62
2023/01/07 11:29:26;;;;;;;691.80;650.30;;;10.80;99.90;;;;;;5046113;28;20403;-61
2023/01/07 11:31:56;;;;;;;677.13;636.92;;;10.80;99.90;;;;;;5047497;28;20424;-60
2023/01/07 11:34:24;;;;;;;665.90;626.83;;;10.80;99.90;;;;;;5050034;28;20385;-60
2023/01/07 11:36:52;;;;;;;653.33;615.75;;;10.90;99.90;;;;;;5047998;28;20985;-61
2023/01/07 11:39:24;;;;;;;657.03;619.03;;;10.90;99.90;;;;;;5050229;28;20480;-53
2023/01/07 11:42:37;;;;;;;674.13;634.20;;;10.90;99.90;;;;;;5055097;28;20409;-59
2023/01/07 11:44:49;;;;;;;658.55;620.35;;;11.10;99.90;;;;;;5053350;28;20805;-61
2023/01/07 11:47:17;;;;;;;670.73;631.57;;;11.10;99.90;;;;;;5049318;28;20439;-61
2023/01/07 11:49:46;;;;;;;651.15;613.75;;;11.10;99.90;;;;;;5047610;28;20538;-61
2023/01/07 11:52:19;;;;;;;657.85;620.03;;;11.10;99.90;;;;;;5047509;28;20567;-59
2023/01/07 11:54:52;;;;;;;665.35;626.63;;;11.00;99.90;;;;;;5046487;28;20378;-61
2023/01/07 11:57:25;;;;;;;654.67;617.20;;;11.00;99.90;;;;;;5043718;28;20415;-61
2023/01/07 12:00:12;;;;;;;649.28;612.00;;;11.00;99.90;;;;;;5044722;28;20674;-61
2023/01/07 12:02:38;;;;;;;655.65;617.85;;;11.00;99.90;;;;;;5042813;28;20405;-61
2023/01/07 12:05:20;;;;;;;660.28;622.65;;;11.00;99.90;;;;;;5044677;28;20407;-61
2023/01/07 12:07:50;;;;;;;645.40;608.65;;;11.00;99.90;;;;;;5045758;28;20385;-61
2023/01/07 12:10:33;;;;;;;654.33;616.88;;;11.00;99.90;;;;;;5044094;28;20438;-59
2023/01/07 12:13:02;;;;;;;654.10;616.58;;;11.00;99.90;;;;;;5043329;28;20420;-60
2023/01/07 12:15:31;;;;;;;638.05;602.08;;;11.10;99.90;;;;;;5042792;28;20401;-60
2023/01/07 12:17:58;;;;;;;638.47;602.70;;;11.10;99.90;;;;;;5044304;28;20435;-60
2023/01/07 12:20:46;;;;;;;608.92;575.20;;;11.10;99.90;;;;;;5043521;28;20455;-58
2023/01/07 12:23:42;;;;;;;603.80;570.50;;;11.10;99.90;;;;;;5042903;28;20950;-60
2023/01/07 12:26:24;;;;;;;603.97;570.60;;;11.10;99.90;;;;;;5043567;28;20440;-59